sensor_id;sensor_type;location;lat;lon;timestamp;P1;durP1;ratioP1;P2;durP2;ratioP2
4122;SDS011;2075;51.062;6.920;2023-05-10T00:01:18;10.47;;;7.90;;
4122;SDS011;2075;51.062;6.920;2023-05-10T00:04:04;10.37;;;8.30;;
4122;SDS011;2075;51.062;6.920;2023-05-10T00:06:49;11.20;;;8.70;;
4122;SDS011;2075;51.062;6.920;2023-05-10T00:09:35;10.77;;;8.17;;
4122;SDS011;2075;51.062;6.920;2023-05-10T00:12:20;13.77;;;9.20;;
4122;SDS011;2075;51.062;6.920;2023-05-10T00:15:06;16.03;;;8.83;;
4122;SDS011;2075;51.062;6.920;2023-05-10T00:17:52;16.63;;;8.97;;
4122;SDS011;2075;51.062;6.920;2023-05-10T00:20:39;11.83;;;9.30;;
4122;SDS011;2075;51.062;6.920;2023-05-10T00:23:24;13.77;;;9.33;;
4122;SDS011;2075;51.062;6.920;2023-05-10T00:26:10;12.33;;;9.23;;
4122;SDS011;2075;51.062;6.920;2023-05-10T00:28:56;14.60;;;9.77;;
4122;SDS011;2075;51.062;6.920;2023-05-10T00:31:42;12.60;;;9.10;;
4122;SDS011;2075;51.062;6.920;2023-05-10T00:34:28;13.17;;;9.43;;
4122;SDS011;2075;51.062;6.920;2023-05-10T00:37:14;13.47;;;9.80;;
4122;SDS011;2075;51.062;6.920;2023-05-10T00:40:00;13.13;;;9.50;;
4122;SDS011;2075;51.062;6.920;2023-05-10T00:42:45;12.20;;;9.33;;
4122;SDS011;2075;51.062;6.920;2023-05-10T00:45:30;12.93;;;9.47;;
4122;SDS011;2075;51.062;6.920;2023-05-10T00:48:17;13.73;;;9.60;;
4122;SDS011;2075;51.062;6.920;2023-05-10T00:51:02;12.77;;;9.60;;
4122;SDS011;2075;51.062;6.920;2023-05-10T00:53:49;16.53;;;10.37;;
4122;SDS011;2075;51.062;6.920;2023-05-10T00:56:36;14.83;;;9.70;;
4122;SDS011;2075;51.062;6.920;2023-05-10T00:59:21;15.53;;;10.00;;
4122;SDS011;2075;51.062;6.920;2023-05-10T01:02:06;17.53;;;9.70;;
4122;SDS011;2075;51.062;6.920;2023-05-10T01:04:52;14.80;;;10.13;;
4122;SDS011;2075;51.062;6.920;2023-05-10T01:07:38;10.50;;;8.20;;
4122;SDS011;2075;51.062;6.920;2023-05-10T01:10:25;15.40;;;9.93;;
4122;SDS011;2075;51.062;6.920;2023-05-10T01:13:10;14.07;;;10.20;;
4122;SDS011;2075;51.062;6.920;2023-05-10T01:15:57;13.23;;;9.30;;
4122;SDS011;2075;51.062;6.920;2023-05-10T01:18:43;12.33;;;9.00;;
4122;SDS011;2075;51.062;6.920;2023-05-10T01:21:31;15.53;;;9.57;;
4122;SDS011;2075;51.062;6.920;2023-05-10T01:27:55;14.67;;;9.60;;
4122;SDS011;2075;51.062;6.920;2023-05-10T01:31:02;15.10;;;8.93;;
4122;SDS011;2075;51.062;6.920;2023-05-10T01:33:56;14.30;;;9.90;;
4122;SDS011;2075;51.062;6.920;2023-05-10T01:36:48;12.27;;;7.60;;
4122;SDS011;2075;51.062;6.920;2023-05-10T01:39:42;8.87;;;6.97;;
4122;SDS011;2075;51.062;6.920;2023-05-10T01:42:33;8.33;;;6.60;;
4122;SDS011;2075;51.062;6.920;2023-05-10T01:45:28;7.90;;;5.77;;
4122;SDS011;2075;51.062;6.920;2023-05-10T01:48:17;9.27;;;7.27;;
4122;SDS011;2075;51.062;6.920;2023-05-10T01:51:06;8.60;;;7.13;;
4122;SDS011;2075;51.062;6.920;2023-05-10T01:53:54;9.47;;;7.13;;
4122;SDS011;2075;51.062;6.920;2023-05-10T01:56:45;10.37;;;7.50;;
4122;SDS011;2075;51.062;6.920;2023-05-10T01:59:35;8.50;;;6.40;;
4122;SDS011;2075;51.062;6.920;2023-05-10T02:02:24;8.67;;;6.00;;
4122;SDS011;2075;51.062;6.920;2023-05-10T02:05:10;7.40;;;5.60;;
4122;SDS011;2075;51.062;6.920;2023-05-10T02:07:59;10.43;;;5.60;;
4122;SDS011;2075;51.062;6.920;2023-05-10T02:10:46;10.33;;;5.27;;
4122;SDS011;2075;51.062;6.920;2023-05-10T02:13:34;5.03;;;4.53;;
4122;SDS011;2075;51.062;6.920;2023-05-10T02:16:24;8.40;;;5.60;;
4122;SDS011;2075;51.062;6.920;2023-05-10T02:19:14;7.27;;;5.20;;
4122;SDS011;2075;51.062;6.920;2023-05-10T02:22:01;7.57;;;5.40;;
4122;SDS011;2075;51.062;6.920;2023-05-10T02:24:51;7.07;;;5.10;;
4122;SDS011;2075;51.062;6.920;2023-05-10T02:27:39;6.07;;;4.90;;
4122;SDS011;2075;51.062;6.920;2023-05-10T02:30:28;7.27;;;5.30;;
4122;SDS011;2075;51.062;6.920;2023-05-10T02:33:16;8.00;;;5.60;;
4122;SDS011;2075;51.062;6.920;2023-05-10T02:36:03;8.30;;;4.93;;
4122;SDS011;2075;51.062;6.920;2023-05-10T02:38:48;7.73;;;4.70;;
4122;SDS011;2075;51.062;6.920;2023-05-10T02:41:37;5.40;;;4.50;;
4122;SDS011;2075;51.062;6.920;2023-05-10T02:44:26;6.13;;;5.30;;
4122;SDS011;2075;51.062;6.920;2023-05-10T02:47:14;5.90;;;5.30;;
4122;SDS011;2075;51.062;6.920;2023-05-10T02:50:00;8.83;;;5.33;;
4122;SDS011;2075;51.062;6.920;2023-05-10T02:52:46;6.20;;;5.30;;
4122;SDS011;2075;51.062;6.920;2023-05-10T02:55:36;7.30;;;5.80;;
4122;SDS011;2075;51.062;6.920;2023-05-10T02:58:25;6.93;;;5.80;;
4122;SDS011;2075;51.062;6.920;2023-05-10T03:01:10;6.70;;;5.50;;
4122;SDS011;2075;51.062;6.920;2023-05-10T03:03:56;10.63;;;5.97;;
4122;SDS011;2075;51.062;6.920;2023-05-10T03:06:41;7.50;;;6.20;;
4122;SDS011;2075;51.062;6.920;2023-05-10T03:09:27;6.13;;;5.27;;
4122;SDS011;2075;51.062;6.920;2023-05-10T03:12:15;6.60;;;5.60;;
4122;SDS011;2075;51.062;6.920;2023-05-10T03:15:11;6.93;;;6.03;;
4122;SDS011;2075;51.062;6.920;2023-05-10T03:18:04;8.87;;;5.77;;
4122;SDS011;2075;51.062;6.920;2023-05-10T03:20:55;8.40;;;6.13;;
4122;SDS011;2075;51.062;6.920;2023-05-10T03:23:47;9.07;;;6.10;;
4122;SDS011;2075;51.062;6.920;2023-05-10T03:26:36;8.20;;;6.83;;
4122;SDS011;2075;51.062;6.920;2023-05-10T03:29:28;13.07;;;6.40;;
4122;SDS011;2075;51.062;6.920;2023-05-10T03:32:17;14.23;;;6.80;;
4122;SDS011;2075;51.062;6.920;2023-05-10T03:35:05;9.00;;;6.80;;
4122;SDS011;2075;51.062;6.920;2023-05-10T03:37:51;16.73;;;7.77;;
4122;SDS011;2075;51.062;6.920;2023-05-10T03:40:38;12.70;;;7.90;;
4122;SDS011;2075;51.062;6.920;2023-05-10T03:43:25;14.50;;;9.97;;
4122;SDS011;2075;51.062;6.920;2023-05-10T03:46:11;9.20;;;7.40;;
4122;SDS011;2075;51.062;6.920;2023-05-10T03:48:58;10.87;;;7.70;;
4122;SDS011;2075;51.062;6.920;2023-05-10T03:51:43;10.60;;;7.67;;
4122;SDS011;2075;51.062;6.920;2023-05-10T03:54:29;11.13;;;7.60;;
4122;SDS011;2075;51.062;6.920;2023-05-10T03:57:15;9.57;;;6.40;;
4122;SDS011;2075;51.062;6.920;2023-05-10T04:00:00;9.60;;;7.60;;
4122;SDS011;2075;51.062;6.920;2023-05-10T04:02:46;12.87;;;7.43;;
4122;SDS011;2075;51.062;6.920;2023-05-10T04:05:38;10.43;;;7.60;;
4122;SDS011;2075;51.062;6.920;2023-05-10T04:08:24;14.03;;;7.63;;
4122;SDS011;2075;51.062;6.920;2023-05-10T04:11:10;12.70;;;8.07;;
4122;SDS011;2075;51.062;6.920;2023-05-10T04:13:57;11.63;;;7.70;;
4122;SDS011;2075;51.062;6.920;2023-05-10T04:16:43;11.67;;;8.23;;
4122;SDS011;2075;51.062;6.920;2023-05-10T04:19:29;12.00;;;8.27;;
4122;SDS011;2075;51.062;6.920;2023-05-10T04:22:16;13.47;;;8.63;;
4122;SDS011;2075;51.062;6.920;2023-05-10T04:25:01;12.77;;;8.13;;
4122;SDS011;2075;51.062;6.920;2023-05-10T04:27:46;20.47;;;10.80;;
4122;SDS011;2075;51.062;6.920;2023-05-10T04:30:32;16.37;;;10.80;;
4122;SDS011;2075;51.062;6.920;2023-05-10T04:33:17;19.43;;;13.60;;
4122;SDS011;2075;51.062;6.920;2023-05-10T04:36:02;25.67;;;12.57;;
4122;SDS011;2075;51.062;6.920;2023-05-10T04:38:50;20.40;;;13.57;;
4122;SDS011;2075;51.062;6.920;2023-05-10T04:41:35;26.43;;;14.40;;
4122;SDS011;2075;51.062;6.920;2023-05-10T04:44:23;23.33;;;12.60;;
4122;SDS011;2075;51.062;6.920;2023-05-10T04:47:08;26.87;;;14.00;;
4122;SDS011;2075;51.062;6.920;2023-05-10T04:49:54;28.07;;;16.63;;
4122;SDS011;2075;51.062;6.920;2023-05-10T04:52:39;24.10;;;14.80;;
4122;SDS011;2075;51.062;6.920;2023-05-10T04:55:26;25.47;;;13.10;;
4122;SDS011;2075;51.062;6.920;2023-05-10T04:58:11;23.00;;;12.33;;
4122;SDS011;2075;51.062;6.920;2023-05-10T05:00:57;20.53;;;12.30;;
4122;SDS011;2075;51.062;6.920;2023-05-10T05:03:42;19.80;;;12.10;;
4122;SDS011;2075;51.062;6.920;2023-05-10T05:06:27;24.33;;;12.53;;
4122;SDS011;2075;51.062;6.920;2023-05-10T05:09:13;18.03;;;10.33;;
4122;SDS011;2075;51.062;6.920;2023-05-10T05:11:59;18.10;;;11.40;;
4122;SDS011;2075;51.062;6.920;2023-05-10T05:14:45;16.20;;;10.60;;
4122;SDS011;2075;51.062;6.920;2023-05-10T05:17:30;16.93;;;11.50;;
4122;SDS011;2075;51.062;6.920;2023-05-10T05:20:16;18.30;;;10.30;;
4122;SDS011;2075;51.062;6.920;2023-05-10T05:23:02;16.80;;;10.63;;
4122;SDS011;2075;51.062;6.920;2023-05-10T05:25:48;19.30;;;10.43;;
4122;SDS011;2075;51.062;6.920;2023-05-10T05:28:35;17.80;;;9.47;;
4122;SDS011;2075;51.062;6.920;2023-05-10T05:31:21;19.73;;;10.33;;
4122;SDS011;2075;51.062;6.920;2023-05-10T05:34:06;17.23;;;10.40;;
4122;SDS011;2075;51.062;6.920;2023-05-10T05:36:52;16.57;;;10.70;;
4122;SDS011;2075;51.062;6.920;2023-05-10T05:39:37;16.73;;;9.63;;
4122;SDS011;2075;51.062;6.920;2023-05-10T05:42:23;22.23;;;9.97;;
4122;SDS011;2075;51.062;6.920;2023-05-10T05:45:10;16.10;;;10.50;;
4122;SDS011;2075;51.062;6.920;2023-05-10T05:47:56;18.33;;;10.53;;
4122;SDS011;2075;51.062;6.920;2023-05-10T05:50:42;15.30;;;10.70;;
4122;SDS011;2075;51.062;6.920;2023-05-10T05:53:27;19.80;;;10.50;;
4122;SDS011;2075;51.062;6.920;2023-05-10T05:56:12;21.80;;;12.13;;
4122;SDS011;2075;51.062;6.920;2023-05-10T05:58:58;29.60;;;10.93;;
4122;SDS011;2075;51.062;6.920;2023-05-10T06:01:45;20.33;;;12.10;;
4122;SDS011;2075;51.062;6.920;2023-05-10T06:04:30;24.50;;;13.17;;
4122;SDS011;2075;51.062;6.920;2023-05-10T06:07:16;22.13;;;12.30;;
4122;SDS011;2075;51.062;6.920;2023-05-10T06:10:02;23.60;;;11.93;;
4122;SDS011;2075;51.062;6.920;2023-05-10T06:12:47;20.73;;;12.67;;
4122;SDS011;2075;51.062;6.920;2023-05-10T06:15:33;31.33;;;13.63;;
4122;SDS011;2075;51.062;6.920;2023-05-10T06:18:20;29.57;;;12.53;;
4122;SDS011;2075;51.062;6.920;2023-05-10T06:21:05;18.80;;;11.20;;
4122;SDS011;2075;51.062;6.920;2023-05-10T06:23:51;19.80;;;11.80;;
4122;SDS011;2075;51.062;6.920;2023-05-10T06:26:37;29.37;;;12.10;;
4122;SDS011;2075;51.062;6.920;2023-05-10T06:29:23;20.47;;;11.90;;
4122;SDS011;2075;51.062;6.920;2023-05-10T06:32:08;20.17;;;11.60;;
4122;SDS011;2075;51.062;6.920;2023-05-10T06:34:55;22.53;;;12.50;;
4122;SDS011;2075;51.062;6.920;2023-05-10T06:37:41;23.10;;;10.60;;
4122;SDS011;2075;51.062;6.920;2023-05-10T06:40:27;25.33;;;12.30;;
4122;SDS011;2075;51.062;6.920;2023-05-10T06:43:12;19.67;;;10.97;;
4122;SDS011;2075;51.062;6.920;2023-05-10T06:45:58;19.47;;;12.50;;
4122;SDS011;2075;51.062;6.920;2023-05-10T06:48:44;25.47;;;12.43;;
4122;SDS011;2075;51.062;6.920;2023-05-10T06:51:31;20.80;;;12.43;;
4122;SDS011;2075;51.062;6.920;2023-05-10T06:54:16;26.80;;;13.20;;
4122;SDS011;2075;51.062;6.920;2023-05-10T06:57:02;18.97;;;11.10;;
4122;SDS011;2075;51.062;6.920;2023-05-10T06:59:48;22.77;;;12.17;;
4122;SDS011;2075;51.062;6.920;2023-05-10T07:02:36;26.23;;;12.57;;
4122;SDS011;2075;51.062;6.920;2023-05-10T07:05:21;21.03;;;11.60;;
4122;SDS011;2075;51.062;6.920;2023-05-10T07:08:09;20.23;;;12.23;;
4122;SDS011;2075;51.062;6.920;2023-05-10T07:10:58;23.10;;;11.67;;
4122;SDS011;2075;51.062;6.920;2023-05-10T07:13:45;21.37;;;11.73;;
4122;SDS011;2075;51.062;6.920;2023-05-10T07:16:30;21.77;;;12.83;;
4122;SDS011;2075;51.062;6.920;2023-05-10T07:19:16;26.73;;;12.73;;
4122;SDS011;2075;51.062;6.920;2023-05-10T07:22:02;24.57;;;13.00;;
4122;SDS011;2075;51.062;6.920;2023-05-10T07:24:49;25.20;;;13.10;;
4122;SDS011;2075;51.062;6.920;2023-05-10T07:27:34;26.23;;;13.07;;
4122;SDS011;2075;51.062;6.920;2023-05-10T07:30:20;21.17;;;12.00;;
4122;SDS011;2075;51.062;6.920;2023-05-10T07:33:05;18.43;;;10.90;;
4122;SDS011;2075;51.062;6.920;2023-05-10T07:35:51;20.10;;;12.70;;
4122;SDS011;2075;51.062;6.920;2023-05-10T07:38:37;20.80;;;12.13;;
4122;SDS011;2075;51.062;6.920;2023-05-10T07:41:25;22.27;;;12.10;;
4122;SDS011;2075;51.062;6.920;2023-05-10T07:44:11;18.87;;;11.90;;
4122;SDS011;2075;51.062;6.920;2023-05-10T07:46:57;21.73;;;11.73;;
4122;SDS011;2075;51.062;6.920;2023-05-10T07:49:42;24.30;;;11.73;;
4122;SDS011;2075;51.062;6.920;2023-05-10T07:52:29;22.40;;;12.73;;
4122;SDS011;2075;51.062;6.920;2023-05-10T07:55:14;22.40;;;12.10;;
4122;SDS011;2075;51.062;6.920;2023-05-10T07:58:03;19.73;;;11.90;;
4122;SDS011;2075;51.062;6.920;2023-05-10T08:00:50;20.13;;;11.10;;
4122;SDS011;2075;51.062;6.920;2023-05-10T08:03:36;21.50;;;11.33;;
4122;SDS011;2075;51.062;6.920;2023-05-10T08:06:21;32.97;;;23.10;;
4122;SDS011;2075;51.062;6.920;2023-05-10T08:09:12;13.60;;;10.67;;
4122;SDS011;2075;51.062;6.920;2023-05-10T08:12:09;15.87;;;11.80;;
4122;SDS011;2075;51.062;6.920;2023-05-10T08:17:39;20.80;;;11.60;;
4122;SDS011;2075;51.062;6.920;2023-05-10T08:20:25;18.27;;;10.13;;
4122;SDS011;2075;51.062;6.920;2023-05-10T08:23:11;19.27;;;10.30;;
4122;SDS011;2075;51.062;6.920;2023-05-10T08:25:58;14.47;;;9.33;;
4122;SDS011;2075;51.062;6.920;2023-05-10T08:28:44;18.00;;;10.23;;
4122;SDS011;2075;51.062;6.920;2023-05-10T08:31:30;13.07;;;10.00;;
4122;SDS011;2075;51.062;6.920;2023-05-10T08:34:17;21.90;;;11.50;;
4122;SDS011;2075;51.062;6.920;2023-05-10T08:37:03;18.83;;;10.40;;
4122;SDS011;2075;51.062;6.920;2023-05-10T08:39:48;21.23;;;11.13;;
4122;SDS011;2075;51.062;6.920;2023-05-10T08:42:34;15.30;;;11.87;;
4122;SDS011;2075;51.062;6.920;2023-05-10T08:45:24;18.83;;;11.40;;
4122;SDS011;2075;51.062;6.920;2023-05-10T08:48:13;20.83;;;11.40;;
4122;SDS011;2075;51.062;6.920;2023-05-10T08:51:00;19.40;;;11.50;;
4122;SDS011;2075;51.062;6.920;2023-05-10T08:53:47;17.23;;;11.47;;
4122;SDS011;2075;51.062;6.920;2023-05-10T08:56:33;26.90;;;14.47;;
4122;SDS011;2075;51.062;6.920;2023-05-10T08:59:20;24.63;;;12.93;;
4122;SDS011;2075;51.062;6.920;2023-05-10T09:02:05;21.30;;;13.07;;
4122;SDS011;2075;51.062;6.920;2023-05-10T09:04:52;22.80;;;13.30;;
4122;SDS011;2075;51.062;6.920;2023-05-10T09:07:39;21.03;;;11.60;;
4122;SDS011;2075;51.062;6.920;2023-05-10T09:10:24;22.50;;;12.37;;
4122;SDS011;2075;51.062;6.920;2023-05-10T09:13:11;21.40;;;12.47;;
4122;SDS011;2075;51.062;6.920;2023-05-10T09:15:58;18.97;;;13.03;;
4122;SDS011;2075;51.062;6.920;2023-05-10T09:18:44;21.10;;;12.40;;
4122;SDS011;2075;51.062;6.920;2023-05-10T09:21:30;24.73;;;13.17;;
4122;SDS011;2075;51.062;6.920;2023-05-10T09:24:17;24.10;;;13.90;;
4122;SDS011;2075;51.062;6.920;2023-05-10T09:27:03;24.10;;;15.70;;
4122;SDS011;2075;51.062;6.920;2023-05-10T09:29:49;24.30;;;14.47;;
4122;SDS011;2075;51.062;6.920;2023-05-10T09:32:38;32.00;;;16.90;;
4122;SDS011;2075;51.062;6.920;2023-05-10T09:35:27;27.77;;;15.77;;
4122;SDS011;2075;51.062;6.920;2023-05-10T09:38:14;25.17;;;14.83;;
4122;SDS011;2075;51.062;6.920;2023-05-10T09:41:14;23.73;;;15.50;;
4122;SDS011;2075;51.062;6.920;2023-05-10T09:44:01;27.67;;;14.77;;
4122;SDS011;2075;51.062;6.920;2023-05-10T09:46:50;25.67;;;15.10;;
4122;SDS011;2075;51.062;6.920;2023-05-10T09:49:37;26.80;;;15.03;;
4122;SDS011;2075;51.062;6.920;2023-05-10T09:52:23;27.70;;;14.90;;
4122;SDS011;2075;51.062;6.920;2023-05-10T09:55:12;22.77;;;13.83;;
4122;SDS011;2075;51.062;6.920;2023-05-10T09:58:00;31.83;;;16.37;;
4122;SDS011;2075;51.062;6.920;2023-05-10T10:00:46;25.27;;;15.00;;
4122;SDS011;2075;51.062;6.920;2023-05-10T10:03:35;23.20;;;14.00;;
4122;SDS011;2075;51.062;6.920;2023-05-10T10:06:27;24.30;;;13.80;;
4122;SDS011;2075;51.062;6.920;2023-05-10T10:09:12;21.43;;;13.77;;
4122;SDS011;2075;51.062;6.920;2023-05-10T10:11:59;25.10;;;14.30;;
4122;SDS011;2075;51.062;6.920;2023-05-10T10:14:47;26.87;;;14.20;;
4122;SDS011;2075;51.062;6.920;2023-05-10T10:17:35;23.23;;;13.60;;
4122;SDS011;2075;51.062;6.920;2023-05-10T10:20:22;24.17;;;14.70;;
4122;SDS011;2075;51.062;6.920;2023-05-10T10:23:08;22.33;;;13.80;;
4122;SDS011;2075;51.062;6.920;2023-05-10T10:25:54;26.93;;;15.07;;
4122;SDS011;2075;51.062;6.920;2023-05-10T10:28:40;25.17;;;15.20;;
4122;SDS011;2075;51.062;6.920;2023-05-10T10:31:39;24.03;;;13.60;;
4122;SDS011;2075;51.062;6.920;2023-05-10T10:34:30;25.53;;;14.17;;
4122;SDS011;2075;51.062;6.920;2023-05-10T10:37:17;22.20;;;13.87;;
4122;SDS011;2075;51.062;6.920;2023-05-10T10:40:07;21.37;;;13.83;;
4122;SDS011;2075;51.062;6.920;2023-05-10T10:43:21;23.30;;;13.30;;
4122;SDS011;2075;51.062;6.920;2023-05-10T10:46:11;23.80;;;14.10;;
4122;SDS011;2075;51.062;6.920;2023-05-10T10:49:09;23.87;;;14.37;;
4122;SDS011;2075;51.062;6.920;2023-05-10T10:52:14;23.17;;;13.83;;
4122;SDS011;2075;51.062;6.920;2023-05-10T10:55:08;23.93;;;13.23;;
4122;SDS011;2075;51.062;6.920;2023-05-10T10:57:55;20.50;;;13.33;;
4122;SDS011;2075;51.062;6.920;2023-05-10T11:00:45;27.43;;;13.50;;
4122;SDS011;2075;51.062;6.920;2023-05-10T11:03:31;23.20;;;13.10;;
4122;SDS011;2075;51.062;6.920;2023-05-10T11:06:18;26.50;;;13.10;;
4122;SDS011;2075;51.062;6.920;2023-05-10T11:09:15;22.57;;;12.87;;
4122;SDS011;2075;51.062;6.920;2023-05-10T11:12:07;19.73;;;12.43;;
4122;SDS011;2075;51.062;6.920;2023-05-10T11:14:56;22.13;;;12.77;;
4122;SDS011;2075;51.062;6.920;2023-05-10T11:17:42;18.90;;;11.13;;
4122;SDS011;2075;51.062;6.920;2023-05-10T11:20:28;16.63;;;10.73;;
4122;SDS011;2075;51.062;6.920;2023-05-10T11:23:18;21.87;;;10.80;;
4122;SDS011;2075;51.062;6.920;2023-05-10T11:26:07;16.40;;;10.80;;
4122;SDS011;2075;51.062;6.920;2023-05-10T11:28:53;15.37;;;9.87;;
4122;SDS011;2075;51.062;6.920;2023-05-10T11:31:43;14.30;;;9.20;;
4122;SDS011;2075;51.062;6.920;2023-05-10T11:34:30;13.27;;;8.27;;
4122;SDS011;2075;51.062;6.920;2023-05-10T11:37:17;16.93;;;9.27;;
4122;SDS011;2075;51.062;6.920;2023-05-10T11:40:05;16.13;;;9.10;;
4122;SDS011;2075;51.062;6.920;2023-05-10T11:42:51;13.50;;;8.77;;
4122;SDS011;2075;51.062;6.920;2023-05-10T11:45:37;14.90;;;9.00;;
4122;SDS011;2075;51.062;6.920;2023-05-10T11:48:22;13.70;;;7.40;;
4122;SDS011;2075;51.062;6.920;2023-05-10T11:51:08;13.53;;;7.70;;
4122;SDS011;2075;51.062;6.920;2023-05-10T11:53:55;9.97;;;6.60;;
4122;SDS011;2075;51.062;6.920;2023-05-10T11:56:42;10.73;;;7.20;;
4122;SDS011;2075;51.062;6.920;2023-05-10T11:59:28;9.73;;;7.27;;
4122;SDS011;2075;51.062;6.920;2023-05-10T12:02:13;7.60;;;6.63;;
4122;SDS011;2075;51.062;6.920;2023-05-10T12:05:00;7.70;;;6.10;;
4122;SDS011;2075;51.062;6.920;2023-05-10T12:07:47;7.03;;;6.33;;
4122;SDS011;2075;51.062;6.920;2023-05-10T12:10:34;6.57;;;5.70;;
4122;SDS011;2075;51.062;6.920;2023-05-10T12:13:24;10.83;;;6.10;;
4122;SDS011;2075;51.062;6.920;2023-05-10T12:16:13;5.90;;;5.30;;
4122;SDS011;2075;51.062;6.920;2023-05-10T12:18:59;5.97;;;5.00;;
4122;SDS011;2075;51.062;6.920;2023-05-10T12:21:45;5.87;;;5.27;;
4122;SDS011;2075;51.062;6.920;2023-05-10T12:24:33;6.57;;;5.57;;
4122;SDS011;2075;51.062;6.920;2023-05-10T12:27:19;5.90;;;4.93;;
4122;SDS011;2075;51.062;6.920;2023-05-10T12:30:07;5.20;;;4.70;;
4122;SDS011;2075;51.062;6.920;2023-05-10T12:33:00;5.73;;;4.03;;
4122;SDS011;2075;51.062;6.920;2023-05-10T12:35:47;5.07;;;4.27;;
4122;SDS011;2075;51.062;6.920;2023-05-10T12:38:35;4.83;;;3.80;;
4122;SDS011;2075;51.062;6.920;2023-05-10T12:41:22;4.50;;;4.10;;
4122;SDS011;2075;51.062;6.920;2023-05-10T12:44:08;3.57;;;3.27;;
4122;SDS011;2075;51.062;6.920;2023-05-10T12:46:55;6.40;;;3.50;;
4122;SDS011;2075;51.062;6.920;2023-05-10T12:49:41;3.87;;;3.47;;
4122;SDS011;2075;51.062;6.920;2023-05-10T12:52:26;3.63;;;3.33;;
4122;SDS011;2075;51.062;6.920;2023-05-10T12:55:12;3.80;;;3.50;;
4122;SDS011;2075;51.062;6.920;2023-05-10T12:57:58;6.17;;;4.10;;
4122;SDS011;2075;51.062;6.920;2023-05-10T13:00:44;8.13;;;4.10;;
4122;SDS011;2075;51.062;6.920;2023-05-10T13:03:32;4.23;;;3.83;;
4122;SDS011;2075;51.062;6.920;2023-05-10T13:06:18;6.03;;;4.33;;
4122;SDS011;2075;51.062;6.920;2023-05-10T13:09:04;3.90;;;3.50;;
4122;SDS011;2075;51.062;6.920;2023-05-10T13:11:49;5.90;;;3.30;;
4122;SDS011;2075;51.062;6.920;2023-05-10T13:14:37;2.80;;;2.60;;
4122;SDS011;2075;51.062;6.920;2023-05-10T13:17:25;2.90;;;2.70;;
4122;SDS011;2075;51.062;6.920;2023-05-10T13:20:12;5.10;;;3.33;;
4122;SDS011;2075;51.062;6.920;2023-05-10T13:22:58;3.13;;;2.93;;
4122;SDS011;2075;51.062;6.920;2023-05-10T13:25:44;3.70;;;3.37;;
4122;SDS011;2075;51.062;6.920;2023-05-10T13:28:29;3.80;;;3.20;;
4122;SDS011;2075;51.062;6.920;2023-05-10T13:31:15;2.97;;;2.77;;
4122;SDS011;2075;51.062;6.920;2023-05-10T13:34:00;3.13;;;2.93;;
4122;SDS011;2075;51.062;6.920;2023-05-10T13:36:47;3.07;;;2.87;;
4122;SDS011;2075;51.062;6.920;2023-05-10T13:39:33;3.03;;;2.73;;
4122;SDS011;2075;51.062;6.920;2023-05-10T13:42:21;2.87;;;2.67;;
4122;SDS011;2075;51.062;6.920;2023-05-10T13:45:08;3.03;;;2.83;;
4122;SDS011;2075;51.062;6.920;2023-05-10T13:47:55;3.40;;;3.10;;
4122;SDS011;2075;51.062;6.920;2023-05-10T13:50:41;2.70;;;2.60;;
4122;SDS011;2075;51.062;6.920;2023-05-10T13:53:31;5.33;;;4.83;;
4122;SDS011;2075;51.062;6.920;2023-05-10T13:56:25;4.23;;;3.90;;
4122;SDS011;2075;51.062;6.920;2023-05-10T13:59:11;12.30;;;10.00;;
4122;SDS011;2075;51.062;6.920;2023-05-10T14:01:57;14.10;;;10.30;;
4122;SDS011;2075;51.062;6.920;2023-05-10T14:04:43;14.57;;;10.60;;
4122;SDS011;2075;51.062;6.920;2023-05-10T14:07:28;18.90;;;10.97;;
4122;SDS011;2075;51.062;6.920;2023-05-10T14:10:18;18.37;;;11.40;;
4122;SDS011;2075;51.062;6.920;2023-05-10T14:13:04;20.90;;;11.87;;
4122;SDS011;2075;51.062;6.920;2023-05-10T14:15:54;17.93;;;12.00;;
4122;SDS011;2075;51.062;6.920;2023-05-10T14:18:40;15.83;;;11.50;;
4122;SDS011;2075;51.062;6.920;2023-05-10T14:21:25;15.60;;;11.93;;
4122;SDS011;2075;51.062;6.920;2023-05-10T14:24:11;14.13;;;10.00;;
4122;SDS011;2075;51.062;6.920;2023-05-10T14:26:58;16.30;;;11.17;;
4122;SDS011;2075;51.062;6.920;2023-05-10T14:29:44;17.50;;;11.23;;
4122;SDS011;2075;51.062;6.920;2023-05-10T14:32:29;13.53;;;10.50;;
4122;SDS011;2075;51.062;6.920;2023-05-10T14:35:15;14.00;;;9.60;;
4122;SDS011;2075;51.062;6.920;2023-05-10T14:38:01;11.87;;;8.83;;
4122;SDS011;2075;51.062;6.920;2023-05-10T14:40:47;12.80;;;9.50;;
4122;SDS011;2075;51.062;6.920;2023-05-10T14:43:34;14.00;;;9.27;;
4122;SDS011;2075;51.062;6.920;2023-05-10T14:46:20;15.00;;;9.63;;
4122;SDS011;2075;51.062;6.920;2023-05-10T14:49:06;11.60;;;7.57;;
4122;SDS011;2075;51.062;6.920;2023-05-10T14:51:52;13.50;;;7.97;;
4122;SDS011;2075;51.062;6.920;2023-05-10T14:54:39;14.47;;;9.60;;
4122;SDS011;2075;51.062;6.920;2023-05-10T14:57:25;11.83;;;7.53;;
4122;SDS011;2075;51.062;6.920;2023-05-10T15:00:18;11.63;;;7.07;;
4122;SDS011;2075;51.062;6.920;2023-05-10T15:03:05;7.17;;;6.37;;
4122;SDS011;2075;51.062;6.920;2023-05-10T15:05:51;8.20;;;6.20;;
4122;SDS011;2075;51.062;6.920;2023-05-10T15:08:37;8.50;;;5.90;;
4122;SDS011;2075;51.062;6.920;2023-05-10T15:11:22;6.50;;;5.53;;
4122;SDS011;2075;51.062;6.920;2023-05-10T15:14:07;7.03;;;5.80;;
4122;SDS011;2075;51.062;6.920;2023-05-10T15:16:54;6.67;;;5.20;;
4122;SDS011;2075;51.062;6.920;2023-05-10T15:19:39;6.60;;;5.20;;
4122;SDS011;2075;51.062;6.920;2023-05-10T15:22:25;6.77;;;5.43;;
4122;SDS011;2075;51.062;6.920;2023-05-10T15:25:15;7.20;;;5.90;;
4122;SDS011;2075;51.062;6.920;2023-05-10T15:28:01;7.00;;;5.63;;
4122;SDS011;2075;51.062;6.920;2023-05-10T15:30:46;6.23;;;5.33;;
4122;SDS011;2075;51.062;6.920;2023-05-10T15:33:33;17.73;;;5.77;;
4122;SDS011;2075;51.062;6.920;2023-05-10T15:36:18;7.77;;;5.63;;
4122;SDS011;2075;51.062;6.920;2023-05-10T15:39:04;4.50;;;4.10;;
4122;SDS011;2075;51.062;6.920;2023-05-10T15:41:50;3.97;;;3.67;;
4122;SDS011;2075;51.062;6.920;2023-05-10T15:44:36;3.40;;;3.10;;
4122;SDS011;2075;51.062;6.920;2023-05-10T15:47:23;4.90;;;4.00;;
4122;SDS011;2075;51.062;6.920;2023-05-10T15:50:10;3.10;;;2.80;;
4122;SDS011;2075;51.062;6.920;2023-05-10T15:52:55;2.90;;;2.70;;
4122;SDS011;2075;51.062;6.920;2023-05-10T15:55:41;3.73;;;2.63;;
4122;SDS011;2075;51.062;6.920;2023-05-10T15:58:27;2.73;;;2.53;;
4122;SDS011;2075;51.062;6.920;2023-05-10T16:01:13;2.60;;;2.00;;
4122;SDS011;2075;51.062;6.920;2023-05-10T16:03:59;3.70;;;3.07;;
4122;SDS011;2075;51.062;6.920;2023-05-10T16:06:46;3.77;;;3.20;;
4122;SDS011;2075;51.062;6.920;2023-05-10T16:09:31;3.33;;;2.80;;
4122;SDS011;2075;51.062;6.920;2023-05-10T16:12:16;2.93;;;2.73;;
4122;SDS011;2075;51.062;6.920;2023-05-10T16:15:02;3.70;;;2.90;;
4122;SDS011;2075;51.062;6.920;2023-05-10T16:17:48;2.90;;;2.60;;
4122;SDS011;2075;51.062;6.920;2023-05-10T16:20:33;4.87;;;3.70;;
4122;SDS011;2075;51.062;6.920;2023-05-10T16:23:20;3.30;;;3.10;;
4122;SDS011;2075;51.062;6.920;2023-05-10T16:26:05;3.70;;;3.30;;
4122;SDS011;2075;51.062;6.920;2023-05-10T16:28:51;4.40;;;3.53;;
4122;SDS011;2075;51.062;6.920;2023-05-10T16:31:36;2.80;;;2.60;;
4122;SDS011;2075;51.062;6.920;2023-05-10T16:34:22;3.10;;;2.80;;
4122;SDS011;2075;51.062;6.920;2023-05-10T16:37:07;3.87;;;3.07;;
4122;SDS011;2075;51.062;6.920;2023-05-10T16:39:55;2.73;;;2.50;;
4122;SDS011;2075;51.062;6.920;2023-05-10T16:42:40;2.20;;;2.10;;
4122;SDS011;2075;51.062;6.920;2023-05-10T16:45:26;3.60;;;2.00;;
4122;SDS011;2075;51.062;6.920;2023-05-10T16:48:12;2.23;;;2.13;;
4122;SDS011;2075;51.062;6.920;2023-05-10T16:50:57;3.50;;;3.00;;
4122;SDS011;2075;51.062;6.920;2023-05-10T16:53:42;2.63;;;2.43;;
4122;SDS011;2075;51.062;6.920;2023-05-10T16:56:29;2.43;;;2.20;;
4122;SDS011;2075;51.062;6.920;2023-05-10T16:59:14;2.93;;;2.73;;
4122;SDS011;2075;51.062;6.920;2023-05-10T17:02:00;3.00;;;2.80;;
4122;SDS011;2075;51.062;6.920;2023-05-10T17:04:45;2.67;;;2.47;;
4122;SDS011;2075;51.062;6.920;2023-05-10T17:07:30;4.73;;;3.30;;